Decoded Metar for GMMX (MARRAKECH in MOROCCO) (IATA:RAK) | Meteo·Mobile Aviation Weather
aviador You're here:

GMMX Decoded Metar

MARRAKECH in MOROCCO
Report Time2019-04-23 08:00:00
UTC Time2019-04-23 08:26:57
Flight Rules mvfr MVFR
Wind250° at 09 kt
W.Decomp.*RWY 28: 8.0 kt HW 4.1 kt LCW
Visibility9999 m
Phenomena:N/A
Clouds:Broken 023 Hf
Expected CloudBase > 2,000 ft AGL from Temp-Dew spread
Ceiling2,300 ft
Temp15°C (ISA +3)
Dew Point10°C (72% RH)
AAT11.8°C
QNH1009 hPa
Density Alt2,195 ft
Elevation1,529 ft
Report Wrong Elevation
Raw Report
GMMX 230800Z 25009KT 9999 BKN023 15/10 Q1009 NOSIG=

Extra information for GMMX:More info

Metar Taf Metar & Taf Last 4 Metars F.Rules Stats Wind Profile Meteogram Temp Stats Airport Information Weather charts Add Link Nearby VenuesMetar ALERT Operation Metar Decoded Social comments